sensor_id;sensor_type;location;lat;lon;timestamp;P1;durP1;ratioP1;P2;durP2;ratioP2
47555;SDS011;33291;46.222;26.460;2022-09-09T00:09:53;17.67;;;12.18;;
47555;SDS011;33291;46.222;26.460;2022-09-09T00:15:05;20.42;;;11.60;;
47555;SDS011;33291;46.222;26.460;2022-09-09T00:17:38;19.67;;;12.18;;
47555;SDS011;33291;46.222;26.460;2022-09-09T00:20:16;16.20;;;12.23;;
47555;SDS011;33291;46.222;26.460;2022-09-09T00:23:01;16.67;;;11.85;;
47555;SDS011;33291;46.222;26.460;2022-09-09T00:25:36;19.25;;;11.52;;
47555;SDS011;33291;46.222;26.460;2022-09-09T00:28:13;21.95;;;11.93;;
47555;SDS011;33291;46.222;26.460;2022-09-09T00:30:43;12.73;;;11.30;;
47555;SDS011;33291;46.222;26.460;2022-09-09T00:33:13;15.05;;;10.85;;
47555;SDS011;33291;46.222;26.460;2022-09-09T00:35:44;14.98;;;12.02;;
47555;SDS011;33291;46.222;26.460;2022-09-09T00:38:22;13.88;;;10.82;;
47555;SDS011;33291;46.222;26.460;2022-09-09T00:40:51;21.40;;;10.35;;
47555;SDS011;33291;46.222;26.460;2022-09-09T00:43:30;13.98;;;11.82;;
47555;SDS011;33291;46.222;26.460;2022-09-09T00:46:05;13.15;;;11.32;;
47555;SDS011;33291;46.222;26.460;2022-09-09T00:48:52;15.95;;;11.15;;
47555;SDS011;33291;46.222;26.460;2022-09-09T00:54:15;19.48;;;15.75;;
47555;SDS011;33291;46.222;26.460;2022-09-09T01:02:13;17.15;;;10.75;;
47555;SDS011;33291;46.222;26.460;2022-09-09T01:05:05;15.80;;;10.45;;
47555;SDS011;33291;46.222;26.460;2022-09-09T01:07:38;17.65;;;11.73;;
47555;SDS011;33291;46.222;26.460;2022-09-09T01:13:15;13.15;;;11.10;;
47555;SDS011;33291;46.222;26.460;2022-09-09T01:15:47;15.93;;;12.60;;
47555;SDS011;33291;46.222;26.460;2022-09-09T01:18:14;14.38;;;11.63;;
47555;SDS011;33291;46.222;26.460;2022-09-09T01:26:34;15.25;;;12.77;;
47555;SDS011;33291;46.222;26.460;2022-09-09T01:29:00;15.15;;;12.70;;
47555;SDS011;33291;46.222;26.460;2022-09-09T01:31:27;20.83;;;12.02;;
47555;SDS011;33291;46.222;26.460;2022-09-09T01:33:56;18.00;;;12.18;;
47555;SDS011;33291;46.222;26.460;2022-09-09T01:36:27;18.05;;;11.05;;
47555;SDS011;33291;46.222;26.460;2022-09-09T01:39:03;16.20;;;11.50;;
47555;SDS011;33291;46.222;26.460;2022-09-09T01:41:28;16.10;;;11.07;;
47555;SDS011;33291;46.222;26.460;2022-09-09T01:43:54;16.48;;;11.45;;
47555;SDS011;33291;46.222;26.460;2022-09-09T01:46:21;19.15;;;14.20;;
47555;SDS011;33291;46.222;26.460;2022-09-09T01:48:48;20.40;;;11.55;;
47555;SDS011;33291;46.222;26.460;2022-09-09T01:51:15;12.35;;;10.80;;
47555;SDS011;33291;46.222;26.460;2022-09-09T01:53:41;21.15;;;10.65;;
47555;SDS011;33291;46.222;26.460;2022-09-09T01:56:30;17.73;;;10.23;;
47555;SDS011;33291;46.222;26.460;2022-09-09T02:02:16;16.83;;;11.95;;
47555;SDS011;33291;46.222;26.460;2022-09-09T02:04:56;14.15;;;11.23;;
47555;SDS011;33291;46.222;26.460;2022-09-09T02:07:44;16.55;;;11.27;;
47555;SDS011;33291;46.222;26.460;2022-09-09T02:12:42;16.15;;;10.77;;
47555;SDS011;33291;46.222;26.460;2022-09-09T02:18:05;11.23;;;9.52;;
47555;SDS011;33291;46.222;26.460;2022-09-09T02:20:33;17.75;;;9.60;;
47555;SDS011;33291;46.222;26.460;2022-09-09T02:23:02;14.80;;;10.70;;
47555;SDS011;33291;46.222;26.460;2022-09-09T02:25:30;15.77;;;11.43;;
47555;SDS011;33291;46.222;26.460;2022-09-09T02:27:55;20.02;;;11.85;;
47555;SDS011;33291;46.222;26.460;2022-09-09T02:30:25;12.77;;;9.90;;
47555;SDS011;33291;46.222;26.460;2022-09-09T02:32:54;13.52;;;9.77;;
47555;SDS011;33291;46.222;26.460;2022-09-09T02:35:23;16.27;;;9.75;;
47555;SDS011;33291;46.222;26.460;2022-09-09T02:37:51;19.70;;;10.95;;
47555;SDS011;33291;46.222;26.460;2022-09-09T02:40:20;22.17;;;9.40;;
47555;SDS011;33291;46.222;26.460;2022-09-09T02:42:47;17.13;;;10.95;;
47555;SDS011;33291;46.222;26.460;2022-09-09T02:45:17;22.58;;;10.73;;
47555;SDS011;33291;46.222;26.460;2022-09-09T02:50:23;11.30;;;9.55;;
47555;SDS011;33291;46.222;26.460;2022-09-09T02:58:42;13.68;;;9.07;;
47555;SDS011;33291;46.222;26.460;2022-09-09T03:01:08;19.42;;;9.75;;
47555;SDS011;33291;46.222;26.460;2022-09-09T03:03:34;13.18;;;9.35;;
47555;SDS011;33291;46.222;26.460;2022-09-09T03:06:00;14.68;;;10.13;;
47555;SDS011;33291;46.222;26.460;2022-09-09T03:08:25;16.85;;;9.88;;
47555;SDS011;33291;46.222;26.460;2022-09-09T03:10:53;10.32;;;8.73;;
47555;SDS011;33291;46.222;26.460;2022-09-09T03:13:19;18.13;;;10.15;;
47555;SDS011;33291;46.222;26.460;2022-09-09T03:15:45;13.65;;;8.82;;
47555;SDS011;33291;46.222;26.460;2022-09-09T03:18:10;17.13;;;9.52;;
47555;SDS011;33291;46.222;26.460;2022-09-09T03:20:36;15.40;;;9.18;;
47555;SDS011;33291;46.222;26.460;2022-09-09T03:23:01;16.58;;;8.95;;
47555;SDS011;33291;46.222;26.460;2022-09-09T03:25:27;13.73;;;8.75;;
47555;SDS011;33291;46.222;26.460;2022-09-09T03:27:53;12.35;;;9.10;;
47555;SDS011;33291;46.222;26.460;2022-09-09T03:30:23;12.23;;;9.95;;
47555;SDS011;33291;46.222;26.460;2022-09-09T03:32:50;14.40;;;10.32;;
47555;SDS011;33291;46.222;26.460;2022-09-09T03:35:16;12.10;;;9.57;;
47555;SDS011;33291;46.222;26.460;2022-09-09T03:37:42;13.95;;;10.70;;
47555;SDS011;33291;46.222;26.460;2022-09-09T03:40:07;51.00;;;31.60;;
47555;SDS011;33291;46.222;26.460;2022-09-09T03:42:35;50.50;;;35.00;;
47555;SDS011;33291;46.222;26.460;2022-09-09T03:45:02;37.75;;;23.65;;
47555;SDS011;33291;46.222;26.460;2022-09-09T03:47:32;20.08;;;15.38;;
47555;SDS011;33291;46.222;26.460;2022-09-09T03:49:58;16.15;;;10.65;;
47555;SDS011;33291;46.222;26.460;2022-09-09T03:52:23;13.02;;;9.25;;
47555;SDS011;33291;46.222;26.460;2022-09-09T03:54:51;11.15;;;9.32;;
47555;SDS011;33291;46.222;26.460;2022-09-09T03:57:18;21.17;;;9.43;;
47555;SDS011;33291;46.222;26.460;2022-09-09T03:59:44;13.35;;;9.45;;
47555;SDS011;33291;46.222;26.460;2022-09-09T04:02:09;17.00;;;7.93;;
47555;SDS011;33291;46.222;26.460;2022-09-09T04:04:35;13.82;;;9.32;;
47555;SDS011;33291;46.222;26.460;2022-09-09T04:07:01;14.55;;;10.77;;
47555;SDS011;33291;46.222;26.460;2022-09-09T04:09:26;16.10;;;10.63;;
47555;SDS011;33291;46.222;26.460;2022-09-09T04:11:52;20.80;;;10.55;;
47555;SDS011;33291;46.222;26.460;2022-09-09T04:14:18;17.67;;;10.00;;
47555;SDS011;33291;46.222;26.460;2022-09-09T04:16:44;14.60;;;9.73;;
47555;SDS011;33291;46.222;26.460;2022-09-09T04:19:11;11.75;;;10.48;;
47555;SDS011;33291;46.222;26.460;2022-09-09T04:21:40;14.05;;;9.18;;
47555;SDS011;33291;46.222;26.460;2022-09-09T04:24:07;14.02;;;10.38;;
47555;SDS011;33291;46.222;26.460;2022-09-09T04:26:33;13.52;;;9.50;;
47555;SDS011;33291;46.222;26.460;2022-09-09T04:29:01;14.55;;;10.90;;
47555;SDS011;33291;46.222;26.460;2022-09-09T04:31:27;20.17;;;10.15;;
47555;SDS011;33291;46.222;26.460;2022-09-09T04:33:53;14.05;;;11.50;;
47555;SDS011;33291;46.222;26.460;2022-09-09T04:36:18;16.88;;;12.25;;
47555;SDS011;33291;46.222;26.460;2022-09-09T04:38:44;17.48;;;13.43;;
47555;SDS011;33291;46.222;26.460;2022-09-09T04:41:11;19.63;;;11.32;;
47555;SDS011;33291;46.222;26.460;2022-09-09T04:43:37;38.53;;;23.10;;
47555;SDS011;33291;46.222;26.460;2022-09-09T04:46:04;22.23;;;17.52;;
47555;SDS011;33291;46.222;26.460;2022-09-09T04:48:30;16.17;;;13.38;;
47555;SDS011;33291;46.222;26.460;2022-09-09T04:53:23;18.05;;;13.02;;
47555;SDS011;33291;46.222;26.460;2022-09-09T04:55:48;17.25;;;12.40;;
47555;SDS011;33291;46.222;26.460;2022-09-09T04:58:14;15.95;;;12.65;;
47555;SDS011;33291;46.222;26.460;2022-09-09T05:00:40;22.40;;;14.32;;
47555;SDS011;33291;46.222;26.460;2022-09-09T05:03:05;16.63;;;12.18;;
47555;SDS011;33291;46.222;26.460;2022-09-09T05:05:32;15.35;;;11.70;;
47555;SDS011;33291;46.222;26.460;2022-09-09T05:08:05;18.48;;;11.70;;
47555;SDS011;33291;46.222;26.460;2022-09-09T05:10:33;13.45;;;11.07;;
47555;SDS011;33291;46.222;26.460;2022-09-09T05:13:02;16.02;;;11.88;;
47555;SDS011;33291;46.222;26.460;2022-09-09T05:15:27;26.13;;;11.32;;
47555;SDS011;33291;46.222;26.460;2022-09-09T05:17:56;16.42;;;10.27;;
47555;SDS011;33291;46.222;26.460;2022-09-09T05:20:25;12.23;;;10.82;;
47555;SDS011;33291;46.222;26.460;2022-09-09T05:22:53;11.68;;;9.68;;
47555;SDS011;33291;46.222;26.460;2022-09-09T05:25:19;13.73;;;10.27;;
47555;SDS011;33291;46.222;26.460;2022-09-09T05:27:45;12.20;;;9.35;;
47555;SDS011;33291;46.222;26.460;2022-09-09T05:30:10;11.73;;;10.52;;
47555;SDS011;33291;46.222;26.460;2022-09-09T05:32:36;10.85;;;9.23;;
47555;SDS011;33291;46.222;26.460;2022-09-09T05:35:02;13.93;;;10.25;;
47555;SDS011;33291;46.222;26.460;2022-09-09T05:37:28;11.73;;;10.32;;
47555;SDS011;33291;46.222;26.460;2022-09-09T05:39:55;11.70;;;10.00;;
47555;SDS011;33291;46.222;26.460;2022-09-09T05:42:20;17.98;;;10.15;;
47555;SDS011;33291;46.222;26.460;2022-09-09T05:44:46;15.27;;;9.70;;
47555;SDS011;33291;46.222;26.460;2022-09-09T05:47:12;16.30;;;8.50;;
47555;SDS011;33291;46.222;26.460;2022-09-09T05:49:37;11.50;;;8.43;;
47555;SDS011;33291;46.222;26.460;2022-09-09T05:52:02;9.38;;;8.35;;
47555;SDS011;33291;46.222;26.460;2022-09-09T05:54:29;13.90;;;9.30;;
47555;SDS011;33291;46.222;26.460;2022-09-09T05:56:55;11.90;;;9.55;;
47555;SDS011;33291;46.222;26.460;2022-09-09T05:59:20;10.80;;;8.90;;
47555;SDS011;33291;46.222;26.460;2022-09-09T06:01:48;21.30;;;8.57;;
47555;SDS011;33291;46.222;26.460;2022-09-09T06:04:13;10.23;;;8.82;;
47555;SDS011;33291;46.222;26.460;2022-09-09T06:06:39;9.88;;;8.27;;
47555;SDS011;33291;46.222;26.460;2022-09-09T06:09:07;10.93;;;9.55;;
47555;SDS011;33291;46.222;26.460;2022-09-09T06:11:35;11.18;;;8.60;;
47555;SDS011;33291;46.222;26.460;2022-09-09T06:14:03;9.30;;;8.32;;
47555;SDS011;33291;46.222;26.460;2022-09-09T06:16:29;12.55;;;9.05;;
47555;SDS011;33291;46.222;26.460;2022-09-09T06:18:57;10.80;;;8.55;;
47555;SDS011;33291;46.222;26.460;2022-09-09T06:21:27;12.60;;;8.80;;
47555;SDS011;33291;46.222;26.460;2022-09-09T06:23:57;10.73;;;8.50;;
47555;SDS011;33291;46.222;26.460;2022-09-09T06:26:24;13.32;;;8.18;;
47555;SDS011;33291;46.222;26.460;2022-09-09T06:28:52;9.45;;;7.35;;
47555;SDS011;33291;46.222;26.460;2022-09-09T06:31:22;12.50;;;7.60;;
47555;SDS011;33291;46.222;26.460;2022-09-09T06:33:49;14.13;;;8.20;;
47555;SDS011;33291;46.222;26.460;2022-09-09T06:36:17;9.88;;;8.82;;
47555;SDS011;33291;46.222;26.460;2022-09-09T06:38:44;10.13;;;7.70;;
47555;SDS011;33291;46.222;26.460;2022-09-09T06:41:11;11.00;;;7.80;;
47555;SDS011;33291;46.222;26.460;2022-09-09T06:43:38;13.85;;;8.48;;
47555;SDS011;33291;46.222;26.460;2022-09-09T06:46:08;13.15;;;7.53;;
47555;SDS011;33291;46.222;26.460;2022-09-09T06:48:35;19.17;;;7.70;;
47555;SDS011;33291;46.222;26.460;2022-09-09T06:53:32;13.52;;;7.47;;
47555;SDS011;33291;46.222;26.460;2022-09-09T06:58:44;11.93;;;6.40;;
47555;SDS011;33291;46.222;26.460;2022-09-09T07:01:17;8.60;;;7.30;;
47555;SDS011;33291;46.222;26.460;2022-09-09T07:03:46;10.80;;;7.88;;
47555;SDS011;33291;46.222;26.460;2022-09-09T07:06:23;10.15;;;8.15;;
47555;SDS011;33291;46.222;26.460;2022-09-09T07:08:57;11.43;;;8.50;;
47555;SDS011;33291;46.222;26.460;2022-09-09T07:11:25;9.55;;;8.35;;
47555;SDS011;33291;46.222;26.460;2022-09-09T07:13:53;10.05;;;7.82;;
47555;SDS011;33291;46.222;26.460;2022-09-09T07:16:20;10.63;;;8.05;;
47555;SDS011;33291;46.222;26.460;2022-09-09T07:18:49;11.55;;;6.78;;
47555;SDS011;33291;46.222;26.460;2022-09-09T07:21:15;16.48;;;8.38;;
47555;SDS011;33291;46.222;26.460;2022-09-09T07:23:42;13.40;;;8.20;;
47555;SDS011;33291;46.222;26.460;2022-09-09T07:26:12;10.15;;;8.57;;
47555;SDS011;33291;46.222;26.460;2022-09-09T07:28:39;10.05;;;8.00;;
47555;SDS011;33291;46.222;26.460;2022-09-09T07:31:06;9.90;;;8.73;;
47555;SDS011;33291;46.222;26.460;2022-09-09T07:33:33;12.38;;;8.38;;
47555;SDS011;33291;46.222;26.460;2022-09-09T07:36:07;9.27;;;8.32;;
47555;SDS011;33291;46.222;26.460;2022-09-09T07:38:53;8.82;;;7.93;;
47555;SDS011;33291;46.222;26.460;2022-09-09T07:41:25;10.30;;;7.45;;
47555;SDS011;33291;46.222;26.460;2022-09-09T07:43:59;9.13;;;8.07;;
47555;SDS011;33291;46.222;26.460;2022-09-09T07:46:28;14.15;;;9.10;;
47555;SDS011;33291;46.222;26.460;2022-09-09T07:48:55;10.32;;;8.65;;
47555;SDS011;33291;46.222;26.460;2022-09-09T07:53:47;10.32;;;8.18;;
47555;SDS011;33291;46.222;26.460;2022-09-09T07:56:14;10.95;;;8.20;;
47555;SDS011;33291;46.222;26.460;2022-09-09T07:58:45;12.88;;;7.78;;
47555;SDS011;33291;46.222;26.460;2022-09-09T08:01:13;9.95;;;8.05;;
47555;SDS011;33291;46.222;26.460;2022-09-09T08:03:43;12.40;;;8.50;;
47555;SDS011;33291;46.222;26.460;2022-09-09T08:06:10;14.85;;;8.18;;
47555;SDS011;33291;46.222;26.460;2022-09-09T08:08:38;17.33;;;9.30;;
47555;SDS011;33291;46.222;26.460;2022-09-09T08:11:10;11.35;;;9.27;;
47555;SDS011;33291;46.222;26.460;2022-09-09T08:13:37;9.43;;;7.68;;
47555;SDS011;33291;46.222;26.460;2022-09-09T08:16:11;11.88;;;7.70;;
47555;SDS011;33291;46.222;26.460;2022-09-09T08:18:39;18.05;;;7.63;;
47555;SDS011;33291;46.222;26.460;2022-09-09T08:21:06;9.00;;;6.47;;
47555;SDS011;33291;46.222;26.460;2022-09-09T08:23:36;10.15;;;7.28;;
47555;SDS011;33291;46.222;26.460;2022-09-09T08:26:04;12.68;;;7.28;;
47555;SDS011;33291;46.222;26.460;2022-09-09T08:28:31;8.15;;;6.68;;
47555;SDS011;33291;46.222;26.460;2022-09-09T08:31:04;11.50;;;6.97;;
47555;SDS011;33291;46.222;26.460;2022-09-09T08:33:40;10.30;;;7.93;;
47555;SDS011;33291;46.222;26.460;2022-09-09T08:36:09;12.88;;;8.20;;
47555;SDS011;33291;46.222;26.460;2022-09-09T08:38:37;8.25;;;7.32;;
47555;SDS011;33291;46.222;26.460;2022-09-09T08:41:09;8.68;;;7.30;;
47555;SDS011;33291;46.222;26.460;2022-09-09T08:43:52;11.63;;;8.27;;
47555;SDS011;33291;46.222;26.460;2022-09-09T08:52:02;8.77;;;6.65;;
47555;SDS011;33291;46.222;26.460;2022-09-09T08:54:35;6.80;;;5.35;;
47555;SDS011;33291;46.222;26.460;2022-09-09T08:57:01;12.85;;;6.70;;
47555;SDS011;33291;46.222;26.460;2022-09-09T08:59:34;8.82;;;6.05;;
47555;SDS011;33291;46.222;26.460;2022-09-09T09:02:03;10.77;;;6.82;;
47555;SDS011;33291;46.222;26.460;2022-09-09T09:04:38;8.85;;;6.22;;
47555;SDS011;33291;46.222;26.460;2022-09-09T09:12:46;10.95;;;5.80;;
47555;SDS011;33291;46.222;26.460;2022-09-09T09:15:31;8.43;;;5.82;;
47555;SDS011;33291;46.222;26.460;2022-09-09T09:18:03;11.65;;;6.00;;
47555;SDS011;33291;46.222;26.460;2022-09-09T09:23:54;6.00;;;5.20;;
47555;SDS011;33291;46.222;26.460;2022-09-09T09:26:23;11.30;;;5.85;;
47555;SDS011;33291;46.222;26.460;2022-09-09T09:29:01;17.70;;;5.85;;
47555;SDS011;33291;46.222;26.460;2022-09-09T09:31:36;10.27;;;5.72;;
47555;SDS011;33291;46.222;26.460;2022-09-09T09:34:02;10.63;;;6.10;;
47555;SDS011;33291;46.222;26.460;2022-09-09T09:36:41;12.85;;;6.18;;
47555;SDS011;33291;46.222;26.460;2022-09-09T09:39:21;7.75;;;6.65;;
47555;SDS011;33291;46.222;26.460;2022-09-09T09:41:49;6.43;;;5.70;;
47555;SDS011;33291;46.222;26.460;2022-09-09T09:44:23;13.68;;;6.53;;
47555;SDS011;33291;46.222;26.460;2022-09-09T09:46:49;7.55;;;6.18;;
47555;SDS011;33291;46.222;26.460;2022-09-09T09:49:15;10.60;;;5.40;;
47555;SDS011;33291;46.222;26.460;2022-09-09T09:51:40;10.07;;;5.88;;
47555;SDS011;33291;46.222;26.460;2022-09-09T09:54:22;7.68;;;5.15;;
47555;SDS011;33291;46.222;26.460;2022-09-09T09:56:53;12.70;;;5.47;;
47555;SDS011;33291;46.222;26.460;2022-09-09T09:59:37;12.88;;;6.20;;
47555;SDS011;33291;46.222;26.460;2022-09-09T10:02:16;9.93;;;5.90;;
47555;SDS011;33291;46.222;26.460;2022-09-09T10:05:05;13.63;;;5.57;;
47555;SDS011;33291;46.222;26.460;2022-09-09T10:07:38;11.27;;;5.53;;
47555;SDS011;33291;46.222;26.460;2022-09-09T10:10:04;8.63;;;5.03;;
47555;SDS011;33291;46.222;26.460;2022-09-09T10:31:46;14.98;;;6.07;;
47555;SDS011;33291;46.222;26.460;2022-09-09T10:37:11;9.80;;;6.35;;
47555;SDS011;33291;46.222;26.460;2022-09-09T10:40:17;14.00;;;6.20;;
47555;SDS011;33291;46.222;26.460;2022-09-09T10:42:46;10.35;;;7.20;;
47555;SDS011;33291;46.222;26.460;2022-09-09T10:45:28;10.10;;;6.43;;
47555;SDS011;33291;46.222;26.460;2022-09-09T10:57:00;15.07;;;6.72;;
47555;SDS011;33291;46.222;26.460;2022-09-09T10:59:43;12.10;;;6.22;;
47555;SDS011;33291;46.222;26.460;2022-09-09T11:04:53;10.32;;;6.45;;
47555;SDS011;33291;46.222;26.460;2022-09-09T11:10:06;9.05;;;7.28;;
47555;SDS011;33291;46.222;26.460;2022-09-09T11:12:42;17.77;;;7.50;;
47555;SDS011;33291;46.222;26.460;2022-09-09T11:15:31;12.38;;;7.10;;
47555;SDS011;33291;46.222;26.460;2022-09-09T11:18:01;12.27;;;6.78;;
47555;SDS011;33291;46.222;26.460;2022-09-09T11:20:31;12.57;;;6.78;;
47555;SDS011;33291;46.222;26.460;2022-09-09T11:25:34;13.60;;;7.43;;
47555;SDS011;33291;46.222;26.460;2022-09-09T11:33:26;10.20;;;8.80;;
47555;SDS011;33291;46.222;26.460;2022-09-09T11:44:38;18.90;;;10.80;;
47555;SDS011;33291;46.222;26.460;2022-09-09T11:47:15;11.85;;;9.52;;
47555;SDS011;33291;46.222;26.460;2022-09-09T11:49:54;11.00;;;8.90;;
47555;SDS011;33291;46.222;26.460;2022-09-09T11:52:42;10.73;;;9.02;;
47555;SDS011;33291;46.222;26.460;2022-09-09T11:58:19;12.65;;;9.63;;
47555;SDS011;33291;46.222;26.460;2022-09-09T12:00:45;14.75;;;8.88;;
47555;SDS011;33291;46.222;26.460;2022-09-09T12:06:28;16.67;;;9.18;;
47555;SDS011;33291;46.222;26.460;2022-09-09T12:09:09;12.23;;;9.30;;
47555;SDS011;33291;46.222;26.460;2022-09-09T12:11:37;13.07;;;9.35;;
47555;SDS011;33291;46.222;26.460;2022-09-09T12:14:02;10.65;;;9.55;;
47555;SDS011;33291;46.222;26.460;2022-09-09T12:16:37;11.70;;;10.00;;
47555;SDS011;33291;46.222;26.460;2022-09-09T12:19:13;18.25;;;10.70;;
47555;SDS011;33291;46.222;26.460;2022-09-09T12:29:50;18.48;;;10.50;;
47555;SDS011;33291;46.222;26.460;2022-09-09T12:32:27;15.20;;;9.90;;
47555;SDS011;33291;46.222;26.460;2022-09-09T12:39:57;14.07;;;10.55;;
47555;SDS011;33291;46.222;26.460;2022-09-09T12:42:24;14.13;;;10.32;;
47555;SDS011;33291;46.222;26.460;2022-09-09T12:44:57;11.40;;;10.15;;
47555;SDS011;33291;46.222;26.460;2022-09-09T12:47:41;15.55;;;10.95;;
47555;SDS011;33291;46.222;26.460;2022-09-09T12:50:15;17.25;;;12.07;;
47555;SDS011;33291;46.222;26.460;2022-09-09T12:52:43;36.00;;;23.08;;
47555;SDS011;33291;46.222;26.460;2022-09-09T12:55:15;27.85;;;14.73;;
47555;SDS011;33291;46.222;26.460;2022-09-09T12:57:44;15.15;;;11.13;;
47555;SDS011;33291;46.222;26.460;2022-09-09T13:00:14;16.23;;;11.02;;
47555;SDS011;33291;46.222;26.460;2022-09-09T13:02:55;17.40;;;11.45;;
47555;SDS011;33291;46.222;26.460;2022-09-09T13:05:26;16.90;;;12.63;;
47555;SDS011;33291;46.222;26.460;2022-09-09T13:08:02;19.83;;;11.25;;
47555;SDS011;33291;46.222;26.460;2022-09-09T13:10:30;17.60;;;11.68;;
47555;SDS011;33291;46.222;26.460;2022-09-09T13:13:00;17.42;;;10.55;;
47555;SDS011;33291;46.222;26.460;2022-09-09T13:15:27;18.92;;;9.90;;
47555;SDS011;33291;46.222;26.460;2022-09-09T13:17:58;12.23;;;8.50;;
47555;SDS011;33291;46.222;26.460;2022-09-09T13:20:28;11.18;;;8.27;;
47555;SDS011;33291;46.222;26.460;2022-09-09T13:22:55;14.43;;;8.85;;
47555;SDS011;33291;46.222;26.460;2022-09-09T13:25:26;16.55;;;9.27;;
47555;SDS011;33291;46.222;26.460;2022-09-09T13:27:57;14.98;;;9.95;;
47555;SDS011;33291;46.222;26.460;2022-09-09T13:30:36;13.10;;;9.63;;
47555;SDS011;33291;46.222;26.460;2022-09-09T13:36:01;19.70;;;10.93;;
47555;SDS011;33291;46.222;26.460;2022-09-09T13:38:38;16.63;;;11.25;;
47555;SDS011;33291;46.222;26.460;2022-09-09T13:41:21;19.33;;;11.65;;
47555;SDS011;33291;46.222;26.460;2022-09-09T13:43:49;33.08;;;25.20;;
47555;SDS011;33291;46.222;26.460;2022-09-09T13:46:32;32.17;;;25.42;;
47555;SDS011;33291;46.222;26.460;2022-09-09T13:49:02;13.68;;;9.13;;
47555;SDS011;33291;46.222;26.460;2022-09-09T13:54:06;17.92;;;11.13;;
47555;SDS011;33291;46.222;26.460;2022-09-09T13:56:35;16.90;;;10.23;;
47555;SDS011;33291;46.222;26.460;2022-09-09T13:59:02;18.95;;;10.75;;
47555;SDS011;33291;46.222;26.460;2022-09-09T14:01:29;18.45;;;12.40;;
47555;SDS011;33291;46.222;26.460;2022-09-09T14:03:55;24.38;;;12.80;;
47555;SDS011;33291;46.222;26.460;2022-09-09T14:06:20;23.08;;;11.88;;
47555;SDS011;33291;46.222;26.460;2022-09-09T14:08:49;17.98;;;13.38;;
47555;SDS011;33291;46.222;26.460;2022-09-09T14:11:16;16.65;;;13.32;;
47555;SDS011;33291;46.222;26.460;2022-09-09T14:13:42;26.83;;;13.75;;
47555;SDS011;33291;46.222;26.460;2022-09-09T14:16:08;22.10;;;14.23;;
47555;SDS011;33291;46.222;26.460;2022-09-09T14:18:34;19.35;;;14.25;;
47555;SDS011;33291;46.222;26.460;2022-09-09T14:21:00;18.55;;;13.70;;
47555;SDS011;33291;46.222;26.460;2022-09-09T14:23:27;20.92;;;14.30;;
47555;SDS011;33291;46.222;26.460;2022-09-09T14:25:54;17.83;;;12.95;;
47555;SDS011;33291;46.222;26.460;2022-09-09T14:28:19;22.98;;;15.02;;
47555;SDS011;33291;46.222;26.460;2022-09-09T14:30:45;21.00;;;15.27;;
47555;SDS011;33291;46.222;26.460;2022-09-09T14:33:12;17.05;;;14.43;;
47555;SDS011;33291;46.222;26.460;2022-09-09T14:35:39;25.73;;;14.10;;
47555;SDS011;33291;46.222;26.460;2022-09-09T14:38:06;21.58;;;14.68;;
47555;SDS011;33291;46.222;26.460;2022-09-09T14:40:32;18.95;;;14.23;;
47555;SDS011;33291;46.222;26.460;2022-09-09T14:42:59;17.75;;;14.38;;
47555;SDS011;33291;46.222;26.460;2022-09-09T14:45:24;22.38;;;13.93;;
47555;SDS011;33291;46.222;26.460;2022-09-09T14:47:51;18.48;;;14.23;;
47555;SDS011;33291;46.222;26.460;2022-09-09T14:50:18;18.20;;;13.68;;
47555;SDS011;33291;46.222;26.460;2022-09-09T14:52:44;22.08;;;14.98;;
47555;SDS011;33291;46.222;26.460;2022-09-09T14:55:10;17.63;;;13.50;;
47555;SDS011;33291;46.222;26.460;2022-09-09T14:57:36;16.88;;;11.80;;
47555;SDS011;33291;46.222;26.460;2022-09-09T15:00:05;15.50;;;12.27;;
47555;SDS011;33291;46.222;26.460;2022-09-09T15:02:32;19.70;;;12.88;;
47555;SDS011;33291;46.222;26.460;2022-09-09T15:04:58;15.77;;;12.60;;
47555;SDS011;33291;46.222;26.460;2022-09-09T15:07:24;17.58;;;13.30;;
47555;SDS011;33291;46.222;26.460;2022-09-09T15:09:50;18.35;;;13.40;;
47555;SDS011;33291;46.222;26.460;2022-09-09T15:12:17;22.17;;;13.60;;
47555;SDS011;33291;46.222;26.460;2022-09-09T15:14:44;20.75;;;13.02;;
47555;SDS011;33291;46.222;26.460;2022-09-09T15:17:10;23.50;;;13.65;;
47555;SDS011;33291;46.222;26.460;2022-09-09T15:19:36;32.70;;;11.68;;
47555;SDS011;33291;46.222;26.460;2022-09-09T15:22:02;23.05;;;12.13;;
47555;SDS011;33291;46.222;26.460;2022-09-09T15:24:30;17.67;;;13.70;;
47555;SDS011;33291;46.222;26.460;2022-09-09T15:26:57;16.08;;;12.05;;
47555;SDS011;33291;46.222;26.460;2022-09-09T15:29:22;22.65;;;14.90;;
47555;SDS011;33291;46.222;26.460;2022-09-09T15:31:48;21.55;;;15.05;;
47555;SDS011;33291;46.222;26.460;2022-09-09T15:34:14;25.90;;;15.15;;
47555;SDS011;33291;46.222;26.460;2022-09-09T15:36:40;19.13;;;12.90;;
47555;SDS011;33291;46.222;26.460;2022-09-09T15:39:08;19.75;;;12.30;;
47555;SDS011;33291;46.222;26.460;2022-09-09T15:41:37;22.25;;;11.65;;
47555;SDS011;33291;46.222;26.460;2022-09-09T15:44:04;15.38;;;11.15;;
47555;SDS011;33291;46.222;26.460;2022-09-09T15:51:35;17.90;;;10.63;;
47555;SDS011;33291;46.222;26.460;2022-09-09T15:54:05;13.55;;;10.55;;
47555;SDS011;33291;46.222;26.460;2022-09-09T15:56:31;19.25;;;11.73;;
47555;SDS011;33291;46.222;26.460;2022-09-09T15:58:57;14.82;;;10.73;;
47555;SDS011;33291;46.222;26.460;2022-09-09T16:01:24;16.85;;;11.90;;
47555;SDS011;33291;46.222;26.460;2022-09-09T16:03:51;11.98;;;9.68;;
47555;SDS011;33291;46.222;26.460;2022-09-09T16:06:17;16.52;;;10.95;;
47555;SDS011;33291;46.222;26.460;2022-09-09T16:08:46;20.10;;;10.48;;
47555;SDS011;33291;46.222;26.460;2022-09-09T16:11:21;15.02;;;9.95;;
47555;SDS011;33291;46.222;26.460;2022-09-09T16:13:49;14.23;;;10.88;;
47555;SDS011;33291;46.222;26.460;2022-09-09T16:16:16;15.30;;;10.85;;
47555;SDS011;33291;46.222;26.460;2022-09-09T16:18:48;16.45;;;11.00;;
47555;SDS011;33291;46.222;26.460;2022-09-09T16:23:56;21.23;;;11.32;;
47555;SDS011;33291;46.222;26.460;2022-09-09T16:26:24;13.00;;;10.27;;
47555;SDS011;33291;46.222;26.460;2022-09-09T16:28:50;12.38;;;10.45;;
47555;SDS011;33291;46.222;26.460;2022-09-09T16:31:17;16.35;;;10.27;;
47555;SDS011;33291;46.222;26.460;2022-09-09T16:33:47;15.35;;;11.13;;
47555;SDS011;33291;46.222;26.460;2022-09-09T16:36:16;12.02;;;9.45;;
47555;SDS011;33291;46.222;26.460;2022-09-09T16:38:44;12.38;;;10.05;;
47555;SDS011;33291;46.222;26.460;2022-09-09T16:41:10;16.50;;;9.85;;
47555;SDS011;33291;46.222;26.460;2022-09-09T16:43:37;15.30;;;10.27;;
47555;SDS011;33291;46.222;26.460;2022-09-09T16:46:09;19.73;;;10.25;;
47555;SDS011;33291;46.222;26.460;2022-09-09T16:48:38;12.93;;;8.95;;
47555;SDS011;33291;46.222;26.460;2022-09-09T16:51:05;16.25;;;9.07;;
47555;SDS011;33291;46.222;26.460;2022-09-09T16:53:33;19.33;;;9.93;;
47555;SDS011;33291;46.222;26.460;2022-09-09T16:56:09;17.83;;;9.98;;
47555;SDS011;33291;46.222;26.460;2022-09-09T16:58:40;11.63;;;9.63;;
47555;SDS011;33291;46.222;26.460;2022-09-09T17:01:08;11.85;;;10.23;;
47555;SDS011;33291;46.222;26.460;2022-09-09T17:03:35;14.18;;;9.82;;
47555;SDS011;33291;46.222;26.460;2022-09-09T17:06:01;17.88;;;10.32;;